sensor_id;sensor_type;location;lat;lon;timestamp;pressure;altitude;pressure_sealevel;temperature;humidity
69316;BME280;56445;43.552;5.034;2023-04-03T06:10:12;101316.63;;;26.27;18.90
69316;BME280;56445;43.552;5.034;2023-04-03T06:12:42;101314.28;;;26.34;19.13
69316;BME280;56445;43.552;5.034;2023-04-03T06:15:10;101315.84;;;26.40;18.66
69316;BME280;56445;43.552;5.034;2023-04-03T06:17:38;101318.00;;;26.43;18.64
69316;BME280;56445;43.552;5.034;2023-04-03T06:20:05;101298.53;;;26.35;18.95
69316;BME280;56445;43.552;5.034;2023-04-03T06:22:33;101296.06;;;26.33;18.77
69316;BME280;56445;43.552;5.034;2023-04-03T06:25:00;101329.34;;;26.61;18.94
69316;BME280;56445;43.552;5.034;2023-04-03T06:27:28;101326.28;;;26.62;18.84
69316;BME280;56445;43.552;5.034;2023-04-03T06:29:55;101319.53;;;26.68;18.95
69316;BME280;56445;43.552;5.034;2023-04-03T06:32:22;101311.75;;;26.70;19.18
69316;BME280;56445;43.552;5.034;2023-04-03T06:34:53;101319.75;;;26.86;18.93
69316;BME280;56445;43.552;5.034;2023-04-03T06:37:22;101336.56;;;27.03;18.86
69316;BME280;56445;43.552;5.034;2023-04-03T06:39:49;101334.13;;;27.02;19.19
69316;BME280;56445;43.552;5.034;2023-04-03T06:42:17;101331.75;;;27.09;19.08
69316;BME280;56445;43.552;5.034;2023-04-03T06:44:44;101327.44;;;27.17;18.97
69316;BME280;56445;43.552;5.034;2023-04-03T06:47:16;101340.06;;;27.23;19.01
69316;BME280;56445;43.552;5.034;2023-04-03T06:49:44;101333.63;;;27.14;18.97
69316;BME280;56445;43.552;5.034;2023-04-03T06:52:11;101333.81;;;27.17;19.12
69316;BME280;56445;43.552;5.034;2023-04-03T06:54:39;101333.44;;;27.24;18.79
69316;BME280;56445;43.552;5.034;2023-04-03T06:57:07;101334.97;;;27.30;19.10
69316;BME280;56445;43.552;5.034;2023-04-03T06:59:35;101331.59;;;27.33;18.89
69316;BME280;56445;43.552;5.034;2023-04-03T07:02:03;101340.00;;;27.42;18.93
69316;BME280;56445;43.552;5.034;2023-04-03T07:04:30;101349.91;;;27.57;19.22
69316;BME280;56445;43.552;5.034;2023-04-03T07:06:57;101339.25;;;27.50;19.02
69316;BME280;56445;43.552;5.034;2023-04-03T07:09:24;101331.16;;;27.54;18.72
69316;BME280;56445;43.552;5.034;2023-04-03T07:11:51;101343.97;;;27.63;18.91
69316;BME280;56445;43.552;5.034;2023-04-03T07:14:19;101337.09;;;27.61;19.09
69316;BME280;56445;43.552;5.034;2023-04-03T07:16:46;101327.94;;;27.60;18.97
69316;BME280;56445;43.552;5.034;2023-04-03T07:19:13;101348.66;;;27.77;19.29
69316;BME280;56445;43.552;5.034;2023-04-03T07:21:41;101335.59;;;27.77;19.11
69316;BME280;56445;43.552;5.034;2023-04-03T07:24:08;101347.50;;;27.92;19.10
69316;BME280;56445;43.552;5.034;2023-04-03T07:26:41;101338.69;;;27.89;18.91
69316;BME280;56445;43.552;5.034;2023-04-03T07:29:08;101321.53;;;27.87;18.79
69316;BME280;56445;43.552;5.034;2023-04-03T07:31:35;101321.44;;;27.93;19.26
69316;BME280;56445;43.552;5.034;2023-04-03T07:34:03;101326.22;;;28.01;19.05
69316;BME280;56445;43.552;5.034;2023-04-03T07:36:30;101310.38;;;28.01;18.85
69316;BME280;56445;43.552;5.034;2023-04-03T07:39:00;101308.44;;;28.02;19.26
69316;BME280;56445;43.552;5.034;2023-04-03T07:41:27;101333.84;;;28.18;19.07
69316;BME280;56445;43.552;5.034;2023-04-03T07:43:55;101336.19;;;28.24;18.84
69316;BME280;56445;43.552;5.034;2023-04-03T07:46:25;101313.28;;;28.19;19.07
69316;BME280;56445;43.552;5.034;2023-04-03T07:49:00;101328.69;;;28.25;18.89
69316;BME280;56445;43.552;5.034;2023-04-03T07:51:27;101332.34;;;28.34;18.80
69316;BME280;56445;43.552;5.034;2023-04-03T07:53:56;101321.25;;;28.34;19.00
69316;BME280;56445;43.552;5.034;2023-04-03T07:56:23;101319.66;;;28.42;19.17
69316;BME280;56445;43.552;5.034;2023-04-03T07:58:51;101319.91;;;28.54;19.02
69316;BME280;56445;43.552;5.034;2023-04-03T08:01:19;101329.28;;;28.67;19.03
69316;BME280;56445;43.552;5.034;2023-04-03T08:03:46;101314.28;;;28.68;18.86
69316;BME280;56445;43.552;5.034;2023-04-03T08:06:13;101307.75;;;28.73;19.21
69316;BME280;56445;43.552;5.034;2023-04-03T08:08:44;101299.28;;;28.78;19.06
69316;BME280;56445;43.552;5.034;2023-04-03T08:11:11;101307.16;;;28.84;19.08
69316;BME280;56445;43.552;5.034;2023-04-03T08:13:38;101303.94;;;28.91;18.81
69316;BME280;56445;43.552;5.034;2023-04-03T08:16:14;101308.19;;;28.97;19.19
69316;BME280;56445;43.552;5.034;2023-04-03T08:18:42;101307.91;;;29.07;19.19
69316;BME280;56445;43.552;5.034;2023-04-03T08:21:11;101288.78;;;29.06;18.92
69316;BME280;56445;43.552;5.034;2023-04-03T08:23:40;101307.81;;;29.21;19.08
69316;BME280;56445;43.552;5.034;2023-04-03T08:26:12;101310.59;;;29.30;18.97
69316;BME280;56445;43.552;5.034;2023-04-03T08:28:39;101304.41;;;29.33;18.93
69316;BME280;56445;43.552;5.034;2023-04-03T08:31:11;101315.06;;;29.49;19.03
69316;BME280;56445;43.552;5.034;2023-04-03T08:33:44;101297.53;;;29.48;19.09
69316;BME280;56445;43.552;5.034;2023-04-03T08:38:48;101316.06;;;29.61;19.10
69316;BME280;56445;43.552;5.034;2023-04-03T08:41:37;101301.34;;;29.61;19.19
69316;BME280;56445;43.552;5.034;2023-04-03T08:50:02;101309.38;;;29.89;18.93
69316;BME280;56445;43.552;5.034;2023-04-03T08:52:38;101315.94;;;30.10;19.00
69316;BME280;56445;43.552;5.034;2023-04-03T08:55:26;101311.50;;;30.18;19.12
69316;BME280;56445;43.552;5.034;2023-04-03T08:58:01;101293.81;;;30.14;18.95
69316;BME280;56445;43.552;5.034;2023-04-03T09:00:44;101286.41;;;30.27;19.05
69316;BME280;56445;43.552;5.034;2023-04-03T09:03:15;101301.16;;;30.44;18.93
69316;BME280;56445;43.552;5.034;2023-04-03T09:05:51;101297.19;;;30.54;19.12
69316;BME280;56445;43.552;5.034;2023-04-03T09:08:33;101291.78;;;30.58;18.69
69316;BME280;56445;43.552;5.034;2023-04-03T09:18:57;101281.09;;;31.07;18.96
69316;BME280;56445;43.552;5.034;2023-04-03T09:21:38;101273.63;;;31.20;19.04
69316;BME280;56445;43.552;5.034;2023-04-03T09:24:12;101274.72;;;31.28;19.00
69316;BME280;56445;43.552;5.034;2023-04-03T09:27:03;101281.97;;;31.50;18.89
69316;BME280;56445;43.552;5.034;2023-04-03T09:29:40;101284.84;;;31.62;18.85
69316;BME280;56445;43.552;5.034;2023-04-03T09:32:22;101257.22;;;31.69;19.08
69316;BME280;56445;43.552;5.034;2023-04-03T09:34:54;101270.13;;;31.95;18.90
69316;BME280;56445;43.552;5.034;2023-04-03T09:37:42;101254.75;;;32.10;19.08
69316;BME280;56445;43.552;5.034;2023-04-03T09:43:00;101270.94;;;33.24;18.88
69316;BME280;56445;43.552;5.034;2023-04-03T09:48:15;101260.13;;;36.31;18.09
69316;BME280;56445;43.552;5.034;2023-04-03T09:53:40;101267.69;;;38.66;18.02
69316;BME280;56445;43.552;5.034;2023-04-03T09:59:08;101262.44;;;40.54;17.79
69316;BME280;56445;43.552;5.034;2023-04-03T10:01:58;101262.75;;;41.32;17.45
69316;BME280;56445;43.552;5.034;2023-04-03T10:04:37;101260.06;;;41.91;17.42
69316;BME280;56445;43.552;5.034;2023-04-03T10:10:18;101260.06;;;42.96;17.30
69316;BME280;56445;43.552;5.034;2023-04-03T10:12:47;101252.56;;;43.47;17.40
69316;BME280;56445;43.552;5.034;2023-04-03T10:15:16;101246.50;;;44.03;17.16
69316;BME280;56445;43.552;5.034;2023-04-03T10:18:09;101243.38;;;44.48;16.70
69316;BME280;56445;43.552;5.034;2023-04-03T10:20:51;101239.44;;;44.86;16.67
69316;BME280;56445;43.552;5.034;2023-04-03T10:23:24;101236.78;;;45.19;16.63
69316;BME280;56445;43.552;5.034;2023-04-03T10:38:35;101230.63;;;47.21;16.09
69316;BME280;56445;43.552;5.034;2023-04-03T10:44:51;101227.56;;;47.79;15.85
69316;BME280;56445;43.552;5.034;2023-04-03T10:48:32;101228.97;;;48.00;15.51
69316;BME280;56445;43.552;5.034;2023-04-03T10:50:56;101213.16;;;48.21;15.43
69316;BME280;56445;43.552;5.034;2023-04-03T10:53:41;101221.72;;;48.34;15.22
69316;BME280;56445;43.552;5.034;2023-04-03T11:05:13;101205.84;;;49.21;14.92
69316;BME280;56445;43.552;5.034;2023-04-03T11:07:48;101213.59;;;49.34;14.56
69316;BME280;56445;43.552;5.034;2023-04-03T11:13:23;101199.59;;;49.67;14.66
69316;BME280;56445;43.552;5.034;2023-04-03T11:15:53;101200.69;;;49.70;14.32
69316;BME280;56445;43.552;5.034;2023-04-03T11:18:37;101193.22;;;49.72;14.56
69316;BME280;56445;43.552;5.034;2023-04-03T11:21:16;101193.34;;;49.69;14.18
69316;BME280;56445;43.552;5.034;2023-04-03T11:23:46;101186.56;;;49.75;14.38
69316;BME280;56445;43.552;5.034;2023-04-03T11:26:18;101185.47;;;50.00;14.30
69316;BME280;56445;43.552;5.034;2023-04-03T11:28:53;101190.31;;;50.22;14.03
69316;BME280;56445;43.552;5.034;2023-04-03T11:31:47;101182.50;;;50.32;14.00
69316;BME280;56445;43.552;5.034;2023-04-03T11:34:28;101168.97;;;50.32;14.30
69316;BME280;56445;43.552;5.034;2023-04-03T11:37:01;101176.47;;;50.30;13.79
69316;BME280;56445;43.552;5.034;2023-04-03T11:39:34;101168.66;;;50.30;13.54
69316;BME280;56445;43.552;5.034;2023-04-03T11:44:47;101170.88;;;50.54;13.83
69316;BME280;56445;43.552;5.034;2023-04-03T11:47:47;101160.53;;;50.84;13.82
69316;BME280;56445;43.552;5.034;2023-04-03T11:53:01;101161.91;;;51.41;13.75
69316;BME280;56445;43.552;5.034;2023-04-03T12:05:57;101154.19;;;51.89;13.35
69316;BME280;56445;43.552;5.034;2023-04-03T12:16:33;101132.22;;;52.40;13.03
69316;BME280;56445;43.552;5.034;2023-04-03T12:26:46;101117.94;;;52.61;13.08
69316;BME280;56445;43.552;5.034;2023-04-03T12:29:23;101109.78;;;52.74;13.10
69316;BME280;56445;43.552;5.034;2023-04-03T12:32:18;101113.19;;;52.87;12.79
69316;BME280;56445;43.552;5.034;2023-04-03T12:40:15;101092.28;;;53.07;12.79
69316;BME280;56445;43.552;5.034;2023-04-03T12:43:23;101091.56;;;53.27;12.55
69316;BME280;56445;43.552;5.034;2023-04-03T12:46:12;101082.03;;;53.21;12.65
69316;BME280;56445;43.552;5.034;2023-04-03T12:48:53;101093.75;;;53.33;12.52
69316;BME280;56445;43.552;5.034;2023-04-03T12:51:41;101079.09;;;53.36;12.43
69316;BME280;56445;43.552;5.034;2023-04-03T12:54:36;101075.91;;;53.34;12.73
69316;BME280;56445;43.552;5.034;2023-04-03T12:57:20;101070.81;;;53.08;11.97
69316;BME280;56445;43.552;5.034;2023-04-03T12:59:48;101062.72;;;52.92;12.20
69316;BME280;56445;43.552;5.034;2023-04-03T13:02:29;101064.94;;;53.03;12.46
69316;BME280;56445;43.552;5.034;2023-04-03T13:04:58;101073.59;;;53.03;12.37
69316;BME280;56445;43.552;5.034;2023-04-03T13:07:34;101073.28;;;53.16;12.32
69316;BME280;56445;43.552;5.034;2023-04-03T13:12:44;101069.56;;;53.30;11.85
69316;BME280;56445;43.552;5.034;2023-04-03T13:15:16;101057.47;;;53.26;11.96
69316;BME280;56445;43.552;5.034;2023-04-03T13:17:44;101060.50;;;53.37;11.89
69316;BME280;56445;43.552;5.034;2023-04-03T13:20:23;101054.66;;;53.31;12.32
69316;BME280;56445;43.552;5.034;2023-04-03T13:25:20;101049.03;;;53.22;11.71
69316;BME280;56445;43.552;5.034;2023-04-03T13:27:49;101042.97;;;53.20;11.91
69316;BME280;56445;43.552;5.034;2023-04-03T13:30:25;101042.84;;;53.29;12.21
69316;BME280;56445;43.552;5.034;2023-04-03T13:32:55;101041.41;;;53.19;11.95
69316;BME280;56445;43.552;5.034;2023-04-03T13:35:33;101029.25;;;53.15;11.95
69316;BME280;56445;43.552;5.034;2023-04-03T13:38:25;101024.28;;;53.16;12.08
69316;BME280;56445;43.552;5.034;2023-04-03T13:40:57;101014.81;;;52.95;11.83
69316;BME280;56445;43.552;5.034;2023-04-03T13:43:27;101017.31;;;52.87;11.93
69316;BME280;56445;43.552;5.034;2023-04-03T13:48:45;101007.66;;;52.75;11.63
69316;BME280;56445;43.552;5.034;2023-04-03T13:53:51;101014.69;;;52.53;11.72
69316;BME280;56445;43.552;5.034;2023-04-03T13:56:45;101005.09;;;52.47;11.90
69316;BME280;56445;43.552;5.034;2023-04-03T14:04:20;100996.31;;;52.36;11.68
69316;BME280;56445;43.552;5.034;2023-04-03T14:06:48;100998.00;;;52.28;11.59
69316;BME280;56445;43.552;5.034;2023-04-03T14:09:19;100993.69;;;52.08;11.70
69316;BME280;56445;43.552;5.034;2023-04-03T14:11:50;100996.66;;;51.99;11.45
69316;BME280;56445;43.552;5.034;2023-04-03T14:14:24;100991.06;;;51.81;11.65
69316;BME280;56445;43.552;5.034;2023-04-03T14:16:59;100983.88;;;51.61;11.48
69316;BME280;56445;43.552;5.034;2023-04-03T14:19:32;100981.84;;;51.28;11.52
69316;BME280;56445;43.552;5.034;2023-04-03T14:22:01;100978.81;;;50.98;11.49
69316;BME280;56445;43.552;5.034;2023-04-03T14:24:33;100978.94;;;50.71;11.49
69316;BME280;56445;43.552;5.034;2023-04-03T14:27:01;100965.50;;;50.44;11.67
69316;BME280;56445;43.552;5.034;2023-04-03T14:29:31;100958.38;;;50.20;11.66
69316;BME280;56445;43.552;5.034;2023-04-03T14:31:58;100968.09;;;50.14;11.58
69316;BME280;56445;43.552;5.034;2023-04-03T14:34:40;100949.19;;;49.79;11.34
69316;BME280;56445;43.552;5.034;2023-04-03T14:37:16;100947.09;;;49.61;11.60
69316;BME280;56445;43.552;5.034;2023-04-03T14:42:15;100952.50;;;49.41;11.42
69316;BME280;56445;43.552;5.034;2023-04-03T14:44:43;100944.97;;;49.25;11.77
69316;BME280;56445;43.552;5.034;2023-04-03T14:47:16;100951.75;;;49.00;11.90
69316;BME280;56445;43.552;5.034;2023-04-03T14:49:55;100953.53;;;48.66;11.77
69316;BME280;56445;43.552;5.034;2023-04-03T14:52:26;100924.63;;;48.42;12.13
69316;BME280;56445;43.552;5.034;2023-04-03T14:54:54;100946.03;;;48.06;11.85
69316;BME280;56445;43.552;5.034;2023-04-03T14:57:24;100957.31;;;47.88;11.46
69316;BME280;56445;43.552;5.034;2023-04-03T14:59:52;100933.56;;;47.43;11.74
69316;BME280;56445;43.552;5.034;2023-04-03T15:02:31;100933.31;;;46.51;11.94
69316;BME280;56445;43.552;5.034;2023-04-03T15:05:00;100926.06;;;46.34;11.88
69316;BME280;56445;43.552;5.034;2023-04-03T15:07:39;100909.00;;;46.59;11.70
69316;BME280;56445;43.552;5.034;2023-04-03T15:10:19;100944.16;;;46.82;11.51
69316;BME280;56445;43.552;5.034;2023-04-03T15:12:48;100937.63;;;46.68;11.53
69316;BME280;56445;43.552;5.034;2023-04-03T15:15:21;100924.28;;;46.65;11.70
69316;BME280;56445;43.552;5.034;2023-04-03T15:17:53;100931.91;;;46.68;11.58
69316;BME280;56445;43.552;5.034;2023-04-03T15:20:24;100904.63;;;46.55;11.68
69316;BME280;56445;43.552;5.034;2023-04-03T15:22:57;100924.94;;;46.57;11.56
69316;BME280;56445;43.552;5.034;2023-04-03T15:29:48;100916.50;;;43.94;11.75
69316;BME280;56445;43.552;5.034;2023-04-03T15:32:26;100883.50;;;42.62;12.26
69316;BME280;56445;43.552;5.034;2023-04-03T15:34:58;100915.28;;;41.81;12.13
69316;BME280;56445;43.552;5.034;2023-04-03T15:37:26;100910.34;;;40.98;12.22
69316;BME280;56445;43.552;5.034;2023-04-03T15:39:54;100909.91;;;40.26;12.51
69316;BME280;56445;43.552;5.034;2023-04-03T15:42:23;100909.31;;;39.54;12.35
69316;BME280;56445;43.552;5.034;2023-04-03T15:44:55;100874.97;;;38.69;12.33
69316;BME280;56445;43.552;5.034;2023-04-03T15:47:24;100880.47;;;38.33;12.49
69316;BME280;56445;43.552;5.034;2023-04-03T15:49:54;100895.56;;;37.89;12.49
69316;BME280;56445;43.552;5.034;2023-04-03T15:52:21;100895.75;;;37.55;12.50
69316;BME280;56445;43.552;5.034;2023-04-03T15:54:49;100866.50;;;37.15;12.59
69316;BME280;56445;43.552;5.034;2023-04-03T15:57:20;100889.72;;;37.08;13.00
69316;BME280;56445;43.552;5.034;2023-04-03T15:59:58;100881.75;;;36.73;12.99
69316;BME280;56445;43.552;5.034;2023-04-03T16:02:26;100902.78;;;36.52;12.93
69316;BME280;56445;43.552;5.034;2023-04-03T16:04:55;100913.88;;;36.38;12.87
69316;BME280;56445;43.552;5.034;2023-04-03T16:07:22;100883.38;;;36.10;12.84
69316;BME280;56445;43.552;5.034;2023-04-03T16:09:49;100858.91;;;35.80;12.91
69316;BME280;56445;43.552;5.034;2023-04-03T16:12:24;100889.28;;;35.71;12.96
69316;BME280;56445;43.552;5.034;2023-04-03T16:14:58;100874.91;;;35.49;13.03
69316;BME280;56445;43.552;5.034;2023-04-03T16:17:26;100874.63;;;35.31;12.94
69316;BME280;56445;43.552;5.034;2023-04-03T16:19:54;100893.09;;;35.13;13.00
69316;BME280;56445;43.552;5.034;2023-04-03T16:22:24;100884.38;;;34.95;13.35
69316;BME280;56445;43.552;5.034;2023-04-03T16:24:51;100867.59;;;34.72;13.29
69316;BME280;56445;43.552;5.034;2023-04-03T16:27:19;100888.50;;;34.59;12.83
69316;BME280;56445;43.552;5.034;2023-04-03T16:29:48;100861.63;;;34.34;13.29
69316;BME280;56445;43.552;5.034;2023-04-03T16:32:17;100872.91;;;34.19;13.29
69316;BME280;56445;43.552;5.034;2023-04-03T16:34:45;100852.94;;;33.85;13.34
69316;BME280;56445;43.552;5.034;2023-04-03T16:37:12;100860.41;;;33.77;13.29
69316;BME280;56445;43.552;5.034;2023-04-03T16:39:40;100859.06;;;33.55;13.36
69316;BME280;56445;43.552;5.034;2023-04-03T16:42:08;100841.69;;;33.46;13.18
69316;BME280;56445;43.552;5.034;2023-04-03T16:44:37;100854.78;;;33.42;13.16
69316;BME280;56445;43.552;5.034;2023-04-03T16:47:07;100827.75;;;33.14;13.54
69316;BME280;56445;43.552;5.034;2023-04-03T16:49:35;100844.41;;;33.10;13.54
69316;BME280;56445;43.552;5.034;2023-04-03T16:52:03;100861.06;;;33.07;13.61
69316;BME280;56445;43.552;5.034;2023-04-03T16:54:32;100832.47;;;32.82;13.41
69316;BME280;56445;43.552;5.034;2023-04-03T16:57:00;100853.31;;;32.84;13.54
69316;BME280;56445;43.552;5.034;2023-04-03T16:59:38;100839.13;;;32.61;13.80
69316;BME280;56445;43.552;5.034;2023-04-03T17:02:23;100839.53;;;32.47;13.90
69316;BME280;56445;43.552;5.034;2023-04-03T17:05:05;100835.63;;;32.36;13.52
69316;BME280;56445;43.552;5.034;2023-04-03T17:07:33;100812.03;;;32.05;13.36
69316;BME280;56445;43.552;5.034;2023-04-03T17:10:00;100828.97;;;32.12;13.86
69316;BME280;56445;43.552;5.034;2023-04-03T17:12:28;100842.38;;;32.07;13.67
69316;BME280;56445;43.552;5.034;2023-04-03T17:14:56;100815.78;;;31.85;13.93
69316;BME280;56445;43.552;5.034;2023-04-03T17:17:24;100843.69;;;31.85;13.88
69316;BME280;56445;43.552;5.034;2023-04-03T17:19:54;100823.84;;;31.61;13.72
69316;BME280;56445;43.552;5.034;2023-04-03T17:22:32;100861.13;;;31.69;14.01
69316;BME280;56445;43.552;5.034;2023-04-03T17:25:03;100843.97;;;31.55;14.13
69316;BME280;56445;43.552;5.034;2023-04-03T17:27:30;100853.25;;;31.59;13.73
69316;BME280;56445;43.552;5.034;2023-04-03T17:29:57;100840.72;;;31.40;13.97
69316;BME280;56445;43.552;5.034;2023-04-03T17:32:25;100832.22;;;31.37;13.80
69316;BME280;56445;43.552;5.034;2023-04-03T17:34:53;100824.66;;;31.37;13.86
69316;BME280;56445;43.552;5.034;2023-04-03T17:37:21;100844.56;;;31.48;13.85
69316;BME280;56445;43.552;5.034;2023-04-03T17:39:49;100853.94;;;31.43;14.20
69316;BME280;56445;43.552;5.034;2023-04-03T17:42:16;100824.78;;;31.29;14.04
69316;BME280;56445;43.552;5.034;2023-04-03T17:44:44;100843.25;;;31.33;13.92
69316;BME280;56445;43.552;5.034;2023-04-03T17:47:11;100834.69;;;31.26;13.93
69316;BME280;56445;43.552;5.034;2023-04-03T17:49:38;100827.34;;;31.21;13.80
69316;BME280;56445;43.552;5.034;2023-04-03T17:52:06;100820.25;;;31.12;14.33
69316;BME280;56445;43.552;5.034;2023-04-03T17:54:34;100813.53;;;31.00;14.06
69316;BME280;56445;43.552;5.034;2023-04-03T17:57:02;100804.47;;;30.91;14.22
69316;BME280;56445;43.552;5.034;2023-04-03T17:59:30;100810.56;;;30.84;13.83
69316;BME280;56445;43.552;5.034;2023-04-03T18:01:58;100832.31;;;30.91;14.27
69316;BME280;56445;43.552;5.034;2023-04-03T18:04:25;100808.94;;;30.71;14.15
69316;BME280;56445;43.552;5.034;2023-04-03T18:06:55;100812.97;;;30.61;14.51
69316;BME280;56445;43.552;5.034;2023-04-03T18:09:29;100806.22;;;30.50;14.14
69316;BME280;56445;43.552;5.034;2023-04-03T18:11:59;100821.22;;;30.58;14.37
69316;BME280;56445;43.552;5.034;2023-04-03T18:14:29;100828.47;;;30.50;14.47
69316;BME280;56445;43.552;5.034;2023-04-03T18:16:59;100822.66;;;30.43;14.20
69316;BME280;56445;43.552;5.034;2023-04-03T18:19:29;100821.25;;;30.37;14.17
69316;BME280;56445;43.552;5.034;2023-04-03T18:22:05;100801.31;;;30.14;14.52
69316;BME280;56445;43.552;5.034;2023-04-03T18:24:37;100804.09;;;30.14;14.36
69316;BME280;56445;43.552;5.034;2023-04-03T18:27:12;100832.50;;;30.19;14.36
69316;BME280;56445;43.552;5.034;2023-04-03T18:29:43;100833.06;;;30.13;14.49
69316;BME280;56445;43.552;5.034;2023-04-03T18:32:13;100823.59;;;29.93;14.44
69316;BME280;56445;43.552;5.034;2023-04-03T18:34:43;100828.13;;;29.76;14.65
69316;BME280;56445;43.552;5.034;2023-04-03T18:37:10;100845.78;;;29.80;14.32
69316;BME280;56445;43.552;5.034;2023-04-03T18:39:37;100845.63;;;29.77;14.59
69316;BME280;56445;43.552;5.034;2023-04-03T18:42:16;100852.69;;;29.74;14.71
69316;BME280;56445;43.552;5.034;2023-04-03T18:44:47;100844.34;;;29.74;14.68
69316;BME280;56445;43.552;5.034;2023-04-03T18:47:17;100869.69;;;29.73;14.62
69316;BME280;56445;43.552;5.034;2023-04-03T18:49:46;100860.09;;;29.61;14.78
69316;BME280;56445;43.552;5.034;2023-04-03T18:52:13;100873.66;;;29.63;14.69
69316;BME280;56445;43.552;5.034;2023-04-03T18:54:40;100890.00;;;29.64;14.60
69316;BME280;56445;43.552;5.034;2023-04-03T18:57:10;100871.97;;;29.41;14.74
69316;BME280;56445;43.552;5.034;2023-04-03T18:59:37;100869.91;;;29.29;14.73
69316;BME280;56445;43.552;5.034;2023-04-03T19:02:05;100893.38;;;29.40;14.85
69316;BME280;56445;43.552;5.034;2023-04-03T19:04:34;100896.34;;;29.35;14.77
69316;BME280;56445;43.552;5.034;2023-04-03T19:07:09;100899.31;;;29.30;14.79
69316;BME280;56445;43.552;5.034;2023-04-03T19:09:36;100885.66;;;29.07;14.66
69316;BME280;56445;43.552;5.034;2023-04-03T19:12:07;100920.13;;;29.15;14.85
69316;BME280;56445;43.552;5.034;2023-04-03T19:14:37;100900.22;;;29.13;14.86
69316;BME280;56445;43.552;5.034;2023-04-03T19:17:06;100904.28;;;29.07;14.67
69316;BME280;56445;43.552;5.034;2023-04-03T19:19:34;100893.72;;;28.92;15.05
69316;BME280;56445;43.552;5.034;2023-04-03T19:22:02;100905.94;;;28.99;14.89
69316;BME280;56445;43.552;5.034;2023-04-03T19:24:29;100914.91;;;28.96;14.87
69316;BME280;56445;43.552;5.034;2023-04-03T19:26:57;100923.56;;;29.03;14.84
69316;BME280;56445;43.552;5.034;2023-04-03T19:29:25;100916.22;;;28.99;14.99
69316;BME280;56445;43.552;5.034;2023-04-03T19:31:52;100912.34;;;28.82;15.07
69316;BME280;56445;43.552;5.034;2023-04-03T19:34:19;100912.50;;;28.86;14.94
69316;BME280;56445;43.552;5.034;2023-04-03T19:36:55;100915.44;;;28.81;14.94
69316;BME280;56445;43.552;5.034;2023-04-03T19:39:23;100907.81;;;28.60;15.01
69316;BME280;56445;43.552;5.034;2023-04-03T19:41:50;100902.41;;;28.55;14.93
69316;BME280;56445;43.552;5.034;2023-04-03T19:44:17;100910.72;;;28.55;15.27
69316;BME280;56445;43.552;5.034;2023-04-03T19:46:44;100901.25;;;28.47;15.01
69316;BME280;56445;43.552;5.034;2023-04-03T19:49:17;100920.66;;;28.47;15.01
69316;BME280;56445;43.552;5.034;2023-04-03T19:51:44;100921.66;;;28.43;15.30
69316;BME280;56445;43.552;5.034;2023-04-03T19:54:12;100939.47;;;28.42;15.09
69316;BME280;56445;43.552;5.034;2023-04-03T19:56:39;100931.94;;;28.42;15.22
69316;BME280;56445;43.552;5.034;2023-04-03T19:59:06;100926.22;;;28.39;15.24
69316;BME280;56445;43.552;5.034;2023-04-03T20:01:33;100932.59;;;28.39;15.17
69316;BME280;56445;43.552;5.034;2023-04-03T20:04:01;100941.56;;;28.36;15.27
69316;BME280;56445;43.552;5.034;2023-04-03T20:06:28;100950.56;;;28.24;15.04
69316;BME280;56445;43.552;5.034;2023-04-03T20:08:55;100953.16;;;28.29;15.24
69316;BME280;56445;43.552;5.034;2023-04-03T20:11:23;100970.63;;;28.39;15.23
69316;BME280;56445;43.552;5.034;2023-04-03T20:13:54;100934.84;;;28.11;15.19
69316;BME280;56445;43.552;5.034;2023-04-03T20:16:22;100948.91;;;28.15;15.38
69316;BME280;56445;43.552;5.034;2023-04-03T20:18:51;100951.84;;;28.18;15.32
69316;BME280;56445;43.552;5.034;2023-04-03T20:21:32;100958.38;;;28.22;15.04
69316;BME280;56445;43.552;5.034;2023-04-03T20:24:01;100924.56;;;28.12;15.38
69316;BME280;56445;43.552;5.034;2023-04-03T20:26:30;100943.03;;;28.25;15.34
69316;BME280;56445;43.552;5.034;2023-04-03T20:29:00;100958.88;;;28.24;15.09
69316;BME280;56445;43.552;5.034;2023-04-03T20:31:28;100934.53;;;28.13;15.47
69316;BME280;56445;43.552;5.034;2023-04-03T20:33:56;100960.16;;;28.18;15.18
69316;BME280;56445;43.552;5.034;2023-04-03T20:36:23;100963.09;;;28.13;15.00
69316;BME280;56445;43.552;5.034;2023-04-03T20:38:52;100951.50;;;28.02;15.47
69316;BME280;56445;43.552;5.034;2023-04-03T20:41:19;100942.34;;;28.02;15.36
69316;BME280;56445;43.552;5.034;2023-04-03T20:43:46;100941.53;;;27.93;15.38
69316;BME280;56445;43.552;5.034;2023-04-03T20:46:14;100958.16;;;27.93;15.50
69316;BME280;56445;43.552;5.034;2023-04-03T20:48:46;100951.78;;;27.92;15.23
69316;BME280;56445;43.552;5.034;2023-04-03T20:51:18;100976.78;;;28.01;15.25
69316;BME280;56445;43.552;5.034;2023-04-03T20:53:46;100977.72;;;27.96;15.29
69316;BME280;56445;43.552;5.034;2023-04-03T20:56:14;100963.44;;;27.80;15.56
69316;BME280;56445;43.552;5.034;2023-04-03T20:58:41;100962.44;;;27.67;15.51
69316;BME280;56445;43.552;5.034;2023-04-03T21:01:20;100944.97;;;27.58;15.56
69316;BME280;56445;43.552;5.034;2023-04-03T21:03:49;100973.41;;;27.81;15.63
69316;BME280;56445;43.552;5.034;2023-04-03T21:20:40;100963.25;;;27.59;15.49
69316;BME280;56445;43.552;5.034;2023-04-03T21:23:09;100966.03;;;27.68;15.65
69316;BME280;56445;43.552;5.034;2023-04-03T21:25:38;100966.38;;;27.75;15.77
69316;BME280;56445;43.552;5.034;2023-04-03T21:28:06;100988.97;;;27.91;15.81
69316;BME280;56445;43.552;5.034;2023-04-03T21:30:33;100949.75;;;27.75;15.46
69316;BME280;56445;43.552;5.034;2023-04-03T21:33:00;100961.34;;;27.77;15.38
69316;BME280;56445;43.552;5.034;2023-04-03T21:35:27;100972.44;;;27.77;15.62